sensor_id;sensor_type;location;lat;lon;timestamp;temperature;humidity
13433;DHT22;6789;47.678;9.158;2023-04-01T00:01:12;8.90;99.90
13433;DHT22;6789;47.678;9.158;2023-04-01T00:06:05;8.80;99.90
13433;DHT22;6789;47.678;9.158;2023-04-01T00:10:58;8.70;99.90
13433;DHT22;6789;47.678;9.158;2023-04-01T00:15:50;8.70;99.90
13433;DHT22;6789;47.678;9.158;2023-04-01T00:20:48;8.70;99.90
13433;DHT22;6789;47.678;9.158;2023-04-01T00:25:55;8.60;99.90
13433;DHT22;6789;47.678;9.158;2023-04-01T00:30:47;8.50;99.90
13433;DHT22;6789;47.678;9.158;2023-04-01T00:35:42;8.40;99.90
13433;DHT22;6789;47.678;9.158;2023-04-01T00:40:38;8.20;99.90
13433;DHT22;6789;47.678;9.158;2023-04-01T00:45:47;8.10;99.90
13433;DHT22;6789;47.678;9.158;2023-04-01T00:50:42;8.00;99.90
13433;DHT22;6789;47.678;9.158;2023-04-01T00:55:42;8.00;99.90
13433;DHT22;6789;47.678;9.158;2023-04-01T01:00:42;8.00;99.90
13433;DHT22;6789;47.678;9.158;2023-04-01T01:11:18;7.80;99.90
13433;DHT22;6789;47.678;9.158;2023-04-01T01:16:28;7.80;99.90
13433;DHT22;6789;47.678;9.158;2023-04-01T01:21:40;7.80;99.90
13433;DHT22;6789;47.678;9.158;2023-04-01T01:26:50;7.70;99.90
13433;DHT22;6789;47.678;9.158;2023-04-01T01:31:58;7.70;99.90
13433;DHT22;6789;47.678;9.158;2023-04-01T01:37:03;7.70;99.90
13433;DHT22;6789;47.678;9.158;2023-04-01T01:42:04;7.70;99.90
13433;DHT22;6789;47.678;9.158;2023-04-01T01:47:01;7.80;99.90
13433;DHT22;6789;47.678;9.158;2023-04-01T01:51:53;7.70;99.90
13433;DHT22;6789;47.678;9.158;2023-04-01T01:56:48;7.70;99.90
13433;DHT22;6789;47.678;9.158;2023-04-01T02:01:45;7.70;99.90
13433;DHT22;6789;47.678;9.158;2023-04-01T02:06:46;7.80;99.90
13433;DHT22;6789;47.678;9.158;2023-04-01T02:11:52;7.80;99.90
13433;DHT22;6789;47.678;9.158;2023-04-01T02:16:59;7.90;99.90
13433;DHT22;6789;47.678;9.158;2023-04-01T02:21:59;8.00;99.90
13433;DHT22;6789;47.678;9.158;2023-04-01T02:27:23;8.00;99.90
13433;DHT22;6789;47.678;9.158;2023-04-01T02:32:18;8.00;99.90
13433;DHT22;6789;47.678;9.158;2023-04-01T02:37:12;8.00;99.90
13433;DHT22;6789;47.678;9.158;2023-04-01T02:42:04;8.00;99.90
13433;DHT22;6789;47.678;9.158;2023-04-01T02:46:56;8.10;99.90
13433;DHT22;6789;47.678;9.158;2023-04-01T02:51:48;8.00;99.90
13433;DHT22;6789;47.678;9.158;2023-04-01T02:56:40;8.00;99.90
13433;DHT22;6789;47.678;9.158;2023-04-01T03:01:32;8.00;99.90
13433;DHT22;6789;47.678;9.158;2023-04-01T03:06:24;8.00;99.90
13433;DHT22;6789;47.678;9.158;2023-04-01T03:11:15;8.00;99.90
13433;DHT22;6789;47.678;9.158;2023-04-01T03:16:07;8.10;99.90
13433;DHT22;6789;47.678;9.158;2023-04-01T03:21:15;8.10;99.90
13433;DHT22;6789;47.678;9.158;2023-04-01T03:26:09;8.20;99.90
13433;DHT22;6789;47.678;9.158;2023-04-01T03:31:01;8.10;99.90
13433;DHT22;6789;47.678;9.158;2023-04-01T03:35:53;8.20;99.90
13433;DHT22;6789;47.678;9.158;2023-04-01T03:40:45;8.10;99.90
13433;DHT22;6789;47.678;9.158;2023-04-01T03:45:46;8.20;99.90
13433;DHT22;6789;47.678;9.158;2023-04-01T03:50:40;8.20;99.90
13433;DHT22;6789;47.678;9.158;2023-04-01T03:55:31;8.30;99.90
13433;DHT22;6789;47.678;9.158;2023-04-01T04:00:23;8.30;99.90
13433;DHT22;6789;47.678;9.158;2023-04-01T04:05:15;8.30;99.90
13433;DHT22;6789;47.678;9.158;2023-04-01T04:10:08;8.30;99.90
13433;DHT22;6789;47.678;9.158;2023-04-01T04:15:00;8.30;99.90
13433;DHT22;6789;47.678;9.158;2023-04-01T04:19:53;8.30;99.90
13433;DHT22;6789;47.678;9.158;2023-04-01T04:24:45;8.20;99.90
13433;DHT22;6789;47.678;9.158;2023-04-01T04:29:37;8.20;99.90
13433;DHT22;6789;47.678;9.158;2023-04-01T04:34:29;8.20;99.90
13433;DHT22;6789;47.678;9.158;2023-04-01T04:39:21;8.20;99.90
13433;DHT22;6789;47.678;9.158;2023-04-01T04:44:13;8.30;99.90
13433;DHT22;6789;47.678;9.158;2023-04-01T04:49:05;8.20;99.90
13433;DHT22;6789;47.678;9.158;2023-04-01T04:53:58;8.20;99.90
13433;DHT22;6789;47.678;9.158;2023-04-01T04:59:05;8.00;99.90
13433;DHT22;6789;47.678;9.158;2023-04-01T05:03:59;7.90;99.90
13433;DHT22;6789;47.678;9.158;2023-04-01T05:08:51;7.80;99.90
13433;DHT22;6789;47.678;9.158;2023-04-01T05:13:43;7.90;99.90
13433;DHT22;6789;47.678;9.158;2023-04-01T05:18:35;7.80;99.90
13433;DHT22;6789;47.678;9.158;2023-04-01T05:23:42;7.80;99.90
13433;DHT22;6789;47.678;9.158;2023-04-01T05:28:35;7.80;99.90
13433;DHT22;6789;47.678;9.158;2023-04-01T05:33:27;7.70;99.90
13433;DHT22;6789;47.678;9.158;2023-04-01T05:38:20;7.70;99.90
13433;DHT22;6789;47.678;9.158;2023-04-01T05:43:19;7.80;99.90
13433;DHT22;6789;47.678;9.158;2023-04-01T05:48:11;7.90;99.90
13433;DHT22;6789;47.678;9.158;2023-04-01T05:53:03;7.90;99.90
13433;DHT22;6789;47.678;9.158;2023-04-01T05:57:55;8.00;99.90
13433;DHT22;6789;47.678;9.158;2023-04-01T06:02:46;8.10;99.90
13433;DHT22;6789;47.678;9.158;2023-04-01T06:07:39;8.10;99.90
13433;DHT22;6789;47.678;9.158;2023-04-01T06:12:47;8.10;99.90
13433;DHT22;6789;47.678;9.158;2023-04-01T06:17:52;8.20;99.90
13433;DHT22;6789;47.678;9.158;2023-04-01T06:23:09;8.70;99.90
13433;DHT22;6789;47.678;9.158;2023-04-01T06:34:05;9.80;99.90
13433;DHT22;6789;47.678;9.158;2023-04-01T06:50:48;10.10;99.90
13433;DHT22;6789;47.678;9.158;2023-04-01T06:56:00;9.90;99.90
13433;DHT22;6789;47.678;9.158;2023-04-01T07:01:03;9.90;99.90
13433;DHT22;6789;47.678;9.158;2023-04-01T07:06:03;9.70;99.90
13433;DHT22;6789;47.678;9.158;2023-04-01T07:11:01;9.90;99.90
13433;DHT22;6789;47.678;9.158;2023-04-01T07:26:39;10.30;99.90
13433;DHT22;6789;47.678;9.158;2023-04-01T07:48:51;10.10;99.90
13433;DHT22;6789;47.678;9.158;2023-04-01T07:53:57;10.30;99.90
13433;DHT22;6789;47.678;9.158;2023-04-01T08:04:10;10.40;99.90
13433;DHT22;6789;47.678;9.158;2023-04-01T08:15:01;10.50;99.90
13433;DHT22;6789;47.678;9.158;2023-04-01T08:20:14;10.50;99.90
13433;DHT22;6789;47.678;9.158;2023-04-01T08:25:25;10.20;99.90
13433;DHT22;6789;47.678;9.158;2023-04-01T08:30:41;10.30;99.90
13433;DHT22;6789;47.678;9.158;2023-04-01T08:35:42;10.20;99.90
13433;DHT22;6789;47.678;9.158;2023-04-01T08:56:43;9.80;99.90
13433;DHT22;6789;47.678;9.158;2023-04-01T09:01:58;9.70;99.90
13433;DHT22;6789;47.678;9.158;2023-04-01T09:34:30;9.50;99.90
13433;DHT22;6789;47.678;9.158;2023-04-01T09:40:09;9.50;99.90
13433;DHT22;6789;47.678;9.158;2023-04-01T09:45:40;9.60;99.90
13433;DHT22;6789;47.678;9.158;2023-04-01T09:50:52;9.70;99.90
13433;DHT22;6789;47.678;9.158;2023-04-01T10:07:36;9.90;99.90
13433;DHT22;6789;47.678;9.158;2023-04-01T10:18:49;10.30;99.90
13433;DHT22;6789;47.678;9.158;2023-04-01T10:30:35;10.50;99.90
13433;DHT22;6789;47.678;9.158;2023-04-01T10:36:18;10.60;99.90
13433;DHT22;6789;47.678;9.158;2023-04-01T10:46:56;10.70;99.90
13433;DHT22;6789;47.678;9.158;2023-04-01T10:58:07;10.80;99.90
13433;DHT22;6789;47.678;9.158;2023-04-01T11:26:31;11.10;99.90
13433;DHT22;6789;47.678;9.158;2023-04-01T11:42:28;11.50;99.90
13433;DHT22;6789;47.678;9.158;2023-04-01T12:47:21;11.00;99.90
13433;DHT22;6789;47.678;9.158;2023-04-01T13:15:11;11.30;99.90
13433;DHT22;6789;47.678;9.158;2023-04-01T13:20:15;11.40;99.90
13433;DHT22;6789;47.678;9.158;2023-04-01T13:30:39;11.20;99.90
13433;DHT22;6789;47.678;9.158;2023-04-01T13:36:04;11.30;99.90
13433;DHT22;6789;47.678;9.158;2023-04-01T14:09:15;11.30;99.90
13433;DHT22;6789;47.678;9.158;2023-04-01T14:37:00;11.00;99.90
13433;DHT22;6789;47.678;9.158;2023-04-01T14:47:44;10.80;99.90
13433;DHT22;6789;47.678;9.158;2023-04-01T14:58:14;10.60;99.90
13433;DHT22;6789;47.678;9.158;2023-04-01T15:03:36;10.50;99.90
13433;DHT22;6789;47.678;9.158;2023-04-01T15:14:25;10.90;99.90
13433;DHT22;6789;47.678;9.158;2023-04-01T15:31:17;11.20;99.90
13433;DHT22;6789;47.678;9.158;2023-04-01T15:36:36;10.90;99.90
13433;DHT22;6789;47.678;9.158;2023-04-01T15:42:31;10.90;99.90
13433;DHT22;6789;47.678;9.158;2023-04-01T15:47:42;10.70;99.90
13433;DHT22;6789;47.678;9.158;2023-04-01T15:53:01;10.70;99.90
13433;DHT22;6789;47.678;9.158;2023-04-01T16:09:33;10.80;99.90
13433;DHT22;6789;47.678;9.158;2023-04-01T16:20:57;10.90;99.90
13433;DHT22;6789;47.678;9.158;2023-04-01T16:26:12;10.90;99.90
13433;DHT22;6789;47.678;9.158;2023-04-01T16:31:32;10.80;99.90
13433;DHT22;6789;47.678;9.158;2023-04-01T16:42:16;10.90;99.90
13433;DHT22;6789;47.678;9.158;2023-04-01T16:47:20;10.90;99.90
13433;DHT22;6789;47.678;9.158;2023-04-01T16:52:51;10.90;99.90
13433;DHT22;6789;47.678;9.158;2023-04-01T16:57:56;10.90;99.90
13433;DHT22;6789;47.678;9.158;2023-04-01T17:46:10;10.40;99.90
13433;DHT22;6789;47.678;9.158;2023-04-01T18:02:37;10.30;99.90
13433;DHT22;6789;47.678;9.158;2023-04-01T18:29:36;9.80;99.90
13433;DHT22;6789;47.678;9.158;2023-04-01T18:39:54;9.70;99.90
13433;DHT22;6789;47.678;9.158;2023-04-01T18:44:59;9.60;99.90
13433;DHT22;6789;47.678;9.158;2023-04-01T18:50:22;9.50;99.90
13433;DHT22;6789;47.678;9.158;2023-04-01T19:00:42;9.50;99.90
13433;DHT22;6789;47.678;9.158;2023-04-01T19:05:42;9.40;99.90
13433;DHT22;6789;47.678;9.158;2023-04-01T19:26:57;9.10;99.90
13433;DHT22;6789;47.678;9.158;2023-04-01T19:37:57;9.00;99.90
13433;DHT22;6789;47.678;9.158;2023-04-01T19:48:18;9.00;99.90
13433;DHT22;6789;47.678;9.158;2023-04-01T19:53:45;8.90;99.90
13433;DHT22;6789;47.678;9.158;2023-04-01T19:58:54;9.00;99.90
13433;DHT22;6789;47.678;9.158;2023-04-01T20:04:08;9.00;99.90
13433;DHT22;6789;47.678;9.158;2023-04-01T20:19:55;9.10;99.90
13433;DHT22;6789;47.678;9.158;2023-04-01T20:24:53;9.00;99.90
13433;DHT22;6789;47.678;9.158;2023-04-01T20:30:49;9.00;99.90
13433;DHT22;6789;47.678;9.158;2023-04-01T20:41:19;8.80;99.90
13433;DHT22;6789;47.678;9.158;2023-04-01T20:46:45;8.70;99.90
13433;DHT22;6789;47.678;9.158;2023-04-01T20:51:59;8.70;99.90
13433;DHT22;6789;47.678;9.158;2023-04-01T20:57:21;8.60;99.90
13433;DHT22;6789;47.678;9.158;2023-04-01T21:24:49;8.40;99.90
13433;DHT22;6789;47.678;9.158;2023-04-01T21:41:51;8.20;99.90
13433;DHT22;6789;47.678;9.158;2023-04-01T21:58:43;8.30;99.90
13433;DHT22;6789;47.678;9.158;2023-04-01T22:09:45;8.60;99.90
13433;DHT22;6789;47.678;9.158;2023-04-01T22:25:43;8.50;99.90
13433;DHT22;6789;47.678;9.158;2023-04-01T22:30:52;8.40;99.90
13433;DHT22;6789;47.678;9.158;2023-04-01T22:41:59;8.00;99.90
13433;DHT22;6789;47.678;9.158;2023-04-01T22:47:35;8.20;99.90
13433;DHT22;6789;47.678;9.158;2023-04-01T22:52:46;8.10;99.90
13433;DHT22;6789;47.678;9.158;2023-04-01T22:58:04;7.90;99.90
13433;DHT22;6789;47.678;9.158;2023-04-01T23:03:32;7.90;99.90
13433;DHT22;6789;47.678;9.158;2023-04-01T23:19:47;7.90;99.90
13433;DHT22;6789;47.678;9.158;2023-04-01T23:24:53;8.00;99.90
13433;DHT22;6789;47.678;9.158;2023-04-01T23:29:56;7.90;99.90
13433;DHT22;6789;47.678;9.158;2023-04-01T23:34:58;7.90;99.90
13433;DHT22;6789;47.678;9.158;2023-04-01T23:40:12;7.90;99.90
13433;DHT22;6789;47.678;9.158;2023-04-01T23:45:19;7.70;99.90
13433;DHT22;6789;47.678;9.158;2023-04-01T23:50:23;7.70;99.90
13433;DHT22;6789;47.678;9.158;2023-04-01T23:55:22;7.70;99.90
